sensor_id;sensor_type;location;lat;lon;timestamp;P1;durP1;ratioP1;P2;durP2;ratioP2
48789;SDS011;41718;51.980;5.734;2024-01-30T00:03:56;21.13;;;11.45;;
48789;SDS011;41718;51.980;5.734;2024-01-30T00:08:58;21.27;;;12.25;;
48789;SDS011;41718;51.980;5.734;2024-01-30T00:14:00;21.88;;;12.82;;
48789;SDS011;41718;51.980;5.734;2024-01-30T00:19:02;20.83;;;12.32;;
48789;SDS011;41718;51.980;5.734;2024-01-30T00:24:05;24.45;;;11.25;;
48789;SDS011;41718;51.980;5.734;2024-01-30T00:29:07;20.63;;;10.73;;
48789;SDS011;41718;51.980;5.734;2024-01-30T00:34:09;15.80;;;10.90;;
48789;SDS011;41718;51.980;5.734;2024-01-30T00:39:11;22.00;;;12.27;;
48789;SDS011;41718;51.980;5.734;2024-01-30T00:44:13;14.23;;;10.10;;
48789;SDS011;41718;51.980;5.734;2024-01-30T00:49:17;18.52;;;11.57;;
48789;SDS011;41718;51.980;5.734;2024-01-30T00:54:19;20.02;;;11.63;;
48789;SDS011;41718;51.980;5.734;2024-01-30T00:59:22;16.30;;;9.18;;
48789;SDS011;41718;51.980;5.734;2024-01-30T01:04:24;16.52;;;10.23;;
48789;SDS011;41718;51.980;5.734;2024-01-30T01:09:29;15.43;;;9.52;;
48789;SDS011;41718;51.980;5.734;2024-01-30T01:14:31;15.45;;;9.88;;
48789;SDS011;41718;51.980;5.734;2024-01-30T01:19:33;13.40;;;9.23;;
48789;SDS011;41718;51.980;5.734;2024-01-30T01:24:35;21.75;;;9.48;;
48789;SDS011;41718;51.980;5.734;2024-01-30T01:29:38;16.13;;;9.82;;
48789;SDS011;41718;51.980;5.734;2024-01-30T01:34:40;13.90;;;9.63;;
48789;SDS011;41718;51.980;5.734;2024-01-30T01:39:42;15.25;;;9.32;;
48789;SDS011;41718;51.980;5.734;2024-01-30T01:44:44;14.38;;;9.52;;
48789;SDS011;41718;51.980;5.734;2024-01-30T01:49:46;15.05;;;8.98;;
48789;SDS011;41718;51.980;5.734;2024-01-30T01:54:49;14.15;;;9.07;;
48789;SDS011;41718;51.980;5.734;2024-01-30T01:59:54;11.93;;;7.70;;
48789;SDS011;41718;51.980;5.734;2024-01-30T02:04:57;15.93;;;9.70;;
48789;SDS011;41718;51.980;5.734;2024-01-30T02:09:59;13.95;;;9.45;;
48789;SDS011;41718;51.980;5.734;2024-01-30T02:15:02;14.68;;;8.63;;
48789;SDS011;41718;51.980;5.734;2024-01-30T02:20:06;14.27;;;9.05;;
48789;SDS011;41718;51.980;5.734;2024-01-30T02:25:09;13.82;;;8.82;;
48789;SDS011;41718;51.980;5.734;2024-01-30T02:30:11;16.30;;;9.40;;
48789;SDS011;41718;51.980;5.734;2024-01-30T02:35:14;16.27;;;9.77;;
48789;SDS011;41718;51.980;5.734;2024-01-30T02:40:16;16.98;;;9.23;;
48789;SDS011;41718;51.980;5.734;2024-01-30T02:45:21;16.38;;;10.23;;
48789;SDS011;41718;51.980;5.734;2024-01-30T02:50:23;19.67;;;10.88;;
48789;SDS011;41718;51.980;5.734;2024-01-30T02:55:25;17.38;;;10.82;;
48789;SDS011;41718;51.980;5.734;2024-01-30T03:00:27;17.70;;;11.00;;
48789;SDS011;41718;51.980;5.734;2024-01-30T03:05:29;17.73;;;10.02;;
48789;SDS011;41718;51.980;5.734;2024-01-30T03:10:31;19.60;;;11.38;;
48789;SDS011;41718;51.980;5.734;2024-01-30T03:15:34;19.80;;;10.40;;
48789;SDS011;41718;51.980;5.734;2024-01-30T03:20:36;23.92;;;11.15;;
48789;SDS011;41718;51.980;5.734;2024-01-30T03:25:38;16.83;;;10.55;;
48789;SDS011;41718;51.980;5.734;2024-01-30T03:30:40;15.90;;;10.20;;
48789;SDS011;41718;51.980;5.734;2024-01-30T03:35:42;17.80;;;10.52;;
48789;SDS011;41718;51.980;5.734;2024-01-30T03:40:44;19.52;;;9.98;;
48789;SDS011;41718;51.980;5.734;2024-01-30T03:45:47;16.92;;;9.77;;
48789;SDS011;41718;51.980;5.734;2024-01-30T03:50:49;17.05;;;9.40;;
48789;SDS011;41718;51.980;5.734;2024-01-30T03:55:53;19.65;;;10.73;;
48789;SDS011;41718;51.980;5.734;2024-01-30T04:00:55;21.17;;;11.68;;
48789;SDS011;41718;51.980;5.734;2024-01-30T04:05:57;18.25;;;10.48;;
48789;SDS011;41718;51.980;5.734;2024-01-30T04:11:03;20.20;;;11.93;;
48789;SDS011;41718;51.980;5.734;2024-01-30T04:16:18;18.48;;;10.57;;
48789;SDS011;41718;51.980;5.734;2024-01-30T04:21:24;23.42;;;13.15;;
48789;SDS011;41718;51.980;5.734;2024-01-30T04:26:26;22.27;;;11.57;;
48789;SDS011;41718;51.980;5.734;2024-01-30T04:31:29;29.80;;;12.73;;
48789;SDS011;41718;51.980;5.734;2024-01-30T04:36:31;23.95;;;13.88;;
48789;SDS011;41718;51.980;5.734;2024-01-30T04:41:33;24.38;;;12.43;;
48789;SDS011;41718;51.980;5.734;2024-01-30T04:46:35;25.05;;;13.90;;
48789;SDS011;41718;51.980;5.734;2024-01-30T04:51:37;23.45;;;13.55;;
48789;SDS011;41718;51.980;5.734;2024-01-30T04:56:39;23.40;;;13.23;;
48789;SDS011;41718;51.980;5.734;2024-01-30T05:01:41;21.80;;;12.20;;
48789;SDS011;41718;51.980;5.734;2024-01-30T05:06:43;28.58;;;13.05;;
48789;SDS011;41718;51.980;5.734;2024-01-30T05:11:46;24.98;;;13.82;;
48789;SDS011;41718;51.980;5.734;2024-01-30T05:16:48;30.65;;;15.63;;
48789;SDS011;41718;51.980;5.734;2024-01-30T05:21:52;29.83;;;14.90;;
48789;SDS011;41718;51.980;5.734;2024-01-30T05:26:54;37.88;;;16.25;;
48789;SDS011;41718;51.980;5.734;2024-01-30T05:31:56;32.63;;;16.33;;
48789;SDS011;41718;51.980;5.734;2024-01-30T05:37:01;35.83;;;15.85;;
48789;SDS011;41718;51.980;5.734;2024-01-30T05:42:03;36.38;;;16.90;;
48789;SDS011;41718;51.980;5.734;2024-01-30T05:47:05;35.20;;;16.67;;
48789;SDS011;41718;51.980;5.734;2024-01-30T05:52:07;37.38;;;19.05;;
48789;SDS011;41718;51.980;5.734;2024-01-30T05:57:09;36.60;;;15.52;;
48789;SDS011;41718;51.980;5.734;2024-01-30T06:02:12;33.38;;;16.60;;
48789;SDS011;41718;51.980;5.734;2024-01-30T06:07:14;35.05;;;17.40;;
48789;SDS011;41718;51.980;5.734;2024-01-30T06:12:19;42.70;;;19.23;;
48789;SDS011;41718;51.980;5.734;2024-01-30T06:17:21;49.10;;;19.58;;
48789;SDS011;41718;51.980;5.734;2024-01-30T06:22:23;37.20;;;17.95;;
48789;SDS011;41718;51.980;5.734;2024-01-30T06:27:25;36.92;;;18.52;;
48789;SDS011;41718;51.980;5.734;2024-01-30T06:32:28;40.40;;;19.25;;
48789;SDS011;41718;51.980;5.734;2024-01-30T06:37:30;39.08;;;17.63;;
48789;SDS011;41718;51.980;5.734;2024-01-30T06:42:32;38.78;;;19.13;;
48789;SDS011;41718;51.980;5.734;2024-01-30T06:47:34;45.92;;;19.33;;
48789;SDS011;41718;51.980;5.734;2024-01-30T06:52:36;44.67;;;18.52;;
48789;SDS011;41718;51.980;5.734;2024-01-30T06:57:38;42.50;;;18.83;;
48789;SDS011;41718;51.980;5.734;2024-01-30T07:02:40;36.20;;;18.63;;
48789;SDS011;41718;51.980;5.734;2024-01-30T07:07:42;42.70;;;19.98;;
48789;SDS011;41718;51.980;5.734;2024-01-30T07:12:44;43.40;;;18.55;;
48789;SDS011;41718;51.980;5.734;2024-01-30T07:17:47;38.75;;;17.65;;
48789;SDS011;41718;51.980;5.734;2024-01-30T07:22:49;64.28;;;20.50;;
48789;SDS011;41718;51.980;5.734;2024-01-30T07:27:53;47.38;;;19.23;;
48789;SDS011;41718;51.980;5.734;2024-01-30T07:32:55;44.28;;;20.02;;
48789;SDS011;41718;51.980;5.734;2024-01-30T07:37:57;43.88;;;18.45;;
48789;SDS011;41718;51.980;5.734;2024-01-30T07:42:59;42.67;;;19.88;;
48789;SDS011;41718;51.980;5.734;2024-01-30T07:48:02;45.45;;;19.40;;
48789;SDS011;41718;51.980;5.734;2024-01-30T07:53:04;42.20;;;20.45;;
48789;SDS011;41718;51.980;5.734;2024-01-30T07:58:06;48.13;;;19.95;;
48789;SDS011;41718;51.980;5.734;2024-01-30T08:03:08;44.45;;;18.10;;
48789;SDS011;41718;51.980;5.734;2024-01-30T08:08:10;41.13;;;19.02;;
48789;SDS011;41718;51.980;5.734;2024-01-30T08:13:12;45.42;;;19.80;;
48789;SDS011;41718;51.980;5.734;2024-01-30T08:18:14;47.60;;;21.02;;
48789;SDS011;41718;51.980;5.734;2024-01-30T08:23:17;45.22;;;20.67;;
48789;SDS011;41718;51.980;5.734;2024-01-30T08:28:18;44.85;;;19.50;;
48789;SDS011;41718;51.980;5.734;2024-01-30T08:33:22;40.42;;;19.55;;
48789;SDS011;41718;51.980;5.734;2024-01-30T08:38:24;35.63;;;18.05;;
48789;SDS011;41718;51.980;5.734;2024-01-30T08:43:26;34.80;;;16.92;;
48789;SDS011;41718;51.980;5.734;2024-01-30T08:48:28;38.20;;;18.00;;
48789;SDS011;41718;51.980;5.734;2024-01-30T08:53:31;37.33;;;18.25;;
48789;SDS011;41718;51.980;5.734;2024-01-30T08:58:33;26.05;;;15.57;;
48789;SDS011;41718;51.980;5.734;2024-01-30T09:03:35;29.42;;;16.38;;
48789;SDS011;41718;51.980;5.734;2024-01-30T09:08:40;25.42;;;14.15;;
48789;SDS011;41718;51.980;5.734;2024-01-30T09:13:43;21.70;;;13.73;;
48789;SDS011;41718;51.980;5.734;2024-01-30T09:18:50;23.38;;;14.13;;
48789;SDS011;41718;51.980;5.734;2024-01-30T09:23:54;18.92;;;11.23;;
48789;SDS011;41718;51.980;5.734;2024-01-30T09:29:15;21.80;;;11.95;;
48789;SDS011;41718;51.980;5.734;2024-01-30T09:34:17;17.40;;;10.60;;
48789;SDS011;41718;51.980;5.734;2024-01-30T09:39:19;19.98;;;11.80;;
48789;SDS011;41718;51.980;5.734;2024-01-30T09:44:21;17.67;;;11.13;;
48789;SDS011;41718;51.980;5.734;2024-01-30T09:49:26;20.35;;;11.63;;
48789;SDS011;41718;51.980;5.734;2024-01-30T09:54:30;21.17;;;11.60;;
48789;SDS011;41718;51.980;5.734;2024-01-30T09:59:37;19.48;;;11.48;;
48789;SDS011;41718;51.980;5.734;2024-01-30T10:04:39;20.02;;;11.00;;
48789;SDS011;41718;51.980;5.734;2024-01-30T10:09:41;17.02;;;10.10;;
48789;SDS011;41718;51.980;5.734;2024-01-30T10:14:43;14.23;;;9.15;;
48789;SDS011;41718;51.980;5.734;2024-01-30T10:19:45;19.40;;;9.18;;
48789;SDS011;41718;51.980;5.734;2024-01-30T10:24:48;17.83;;;10.98;;
48789;SDS011;41718;51.980;5.734;2024-01-30T10:29:51;17.13;;;9.82;;
48789;SDS011;41718;51.980;5.734;2024-01-30T10:34:53;21.20;;;7.82;;
48789;SDS011;41718;51.980;5.734;2024-01-30T10:39:55;11.82;;;6.63;;
48789;SDS011;41718;51.980;5.734;2024-01-30T10:45:00;9.35;;;6.25;;
48789;SDS011;41718;51.980;5.734;2024-01-30T10:50:13;9.23;;;5.25;;
48789;SDS011;41718;51.980;5.734;2024-01-30T10:55:16;9.55;;;4.97;;
48789;SDS011;41718;51.980;5.734;2024-01-30T11:00:20;15.13;;;7.38;;
48789;SDS011;41718;51.980;5.734;2024-01-30T11:05:27;12.43;;;6.63;;
48789;SDS011;41718;51.980;5.734;2024-01-30T11:10:43;12.27;;;7.32;;
48789;SDS011;41718;51.980;5.734;2024-01-30T11:15:47;22.90;;;8.57;;
48789;SDS011;41718;51.980;5.734;2024-01-30T11:20:50;11.15;;;7.03;;
48789;SDS011;41718;51.980;5.734;2024-01-30T11:25:53;9.93;;;7.78;;
48789;SDS011;41718;51.980;5.734;2024-01-30T11:31:02;17.20;;;7.28;;
48789;SDS011;41718;51.980;5.734;2024-01-30T11:36:06;11.73;;;7.30;;
48789;SDS011;41718;51.980;5.734;2024-01-30T11:41:09;15.88;;;7.00;;
48789;SDS011;41718;51.980;5.734;2024-01-30T11:46:11;17.23;;;6.90;;
48789;SDS011;41718;51.980;5.734;2024-01-30T11:51:13;10.18;;;7.15;;
48789;SDS011;41718;51.980;5.734;2024-01-30T11:56:16;8.80;;;5.32;;
48789;SDS011;41718;51.980;5.734;2024-01-30T12:01:18;9.43;;;4.65;;
48789;SDS011;41718;51.980;5.734;2024-01-30T12:06:20;9.80;;;5.22;;
48789;SDS011;41718;51.980;5.734;2024-01-30T12:11:22;7.93;;;4.53;;
48789;SDS011;41718;51.980;5.734;2024-01-30T12:16:25;10.85;;;5.25;;
48789;SDS011;41718;51.980;5.734;2024-01-30T12:21:28;7.55;;;3.45;;
48789;SDS011;41718;51.980;5.734;2024-01-30T12:26:31;5.65;;;3.10;;
48789;SDS011;41718;51.980;5.734;2024-01-30T12:31:33;4.88;;;3.17;;
48789;SDS011;41718;51.980;5.734;2024-01-30T12:36:35;3.55;;;1.77;;
48789;SDS011;41718;51.980;5.734;2024-01-30T12:41:38;3.42;;;2.35;;
48789;SDS011;41718;51.980;5.734;2024-01-30T12:46:40;3.75;;;1.83;;
48789;SDS011;41718;51.980;5.734;2024-01-30T12:51:42;3.38;;;1.55;;
48789;SDS011;41718;51.980;5.734;2024-01-30T12:56:44;5.75;;;1.40;;
48789;SDS011;41718;51.980;5.734;2024-01-30T13:01:46;1.33;;;1.20;;
48789;SDS011;41718;51.980;5.734;2024-01-30T13:06:48;3.00;;;1.40;;
48789;SDS011;41718;51.980;5.734;2024-01-30T13:11:50;2.67;;;1.30;;
48789;SDS011;41718;51.980;5.734;2024-01-30T13:16:52;1.45;;;0.95;;
48789;SDS011;41718;51.980;5.734;2024-01-30T13:21:56;2.78;;;2.00;;
48789;SDS011;41718;51.980;5.734;2024-01-30T13:26:58;2.50;;;1.98;;
48789;SDS011;41718;51.980;5.734;2024-01-30T13:32:00;2.85;;;2.00;;
48789;SDS011;41718;51.980;5.734;2024-01-30T13:37:02;4.97;;;2.50;;
48789;SDS011;41718;51.980;5.734;2024-01-30T13:42:04;3.63;;;2.13;;
48789;SDS011;41718;51.980;5.734;2024-01-30T13:47:06;3.50;;;2.55;;
48789;SDS011;41718;51.980;5.734;2024-01-30T13:52:08;2.25;;;1.60;;
48789;SDS011;41718;51.980;5.734;2024-01-30T13:57:10;9.60;;;3.00;;
48789;SDS011;41718;51.980;5.734;2024-01-30T14:02:12;12.00;;;3.45;;
48789;SDS011;41718;51.980;5.734;2024-01-30T14:07:15;3.47;;;2.92;;
48789;SDS011;41718;51.980;5.734;2024-01-30T14:12:17;3.40;;;1.80;;
48789;SDS011;41718;51.980;5.734;2024-01-30T14:17:19;6.55;;;2.58;;
48789;SDS011;41718;51.980;5.734;2024-01-30T14:22:21;7.25;;;2.63;;
48789;SDS011;41718;51.980;5.734;2024-01-30T14:27:23;7.63;;;4.57;;
48789;SDS011;41718;51.980;5.734;2024-01-30T14:32:25;4.55;;;2.67;;
48789;SDS011;41718;51.980;5.734;2024-01-30T14:37:27;5.10;;;2.70;;
48789;SDS011;41718;51.980;5.734;2024-01-30T14:42:31;5.35;;;2.53;;
48789;SDS011;41718;51.980;5.734;2024-01-30T14:47:34;3.90;;;2.20;;
48789;SDS011;41718;51.980;5.734;2024-01-30T14:52:39;2.33;;;2.13;;
48789;SDS011;41718;51.980;5.734;2024-01-30T14:57:42;4.65;;;2.38;;
48789;SDS011;41718;51.980;5.734;2024-01-30T15:02:46;4.20;;;2.53;;
48789;SDS011;41718;51.980;5.734;2024-01-30T15:07:48;4.95;;;2.40;;
48789;SDS011;41718;51.980;5.734;2024-01-30T15:12:50;4.63;;;2.47;;
48789;SDS011;41718;51.980;5.734;2024-01-30T15:17:53;1.73;;;1.60;;
48789;SDS011;41718;51.980;5.734;2024-01-30T15:22:55;3.15;;;2.88;;
48789;SDS011;41718;51.980;5.734;2024-01-30T15:27:57;6.43;;;2.03;;
48789;SDS011;41718;51.980;5.734;2024-01-30T15:32:59;6.53;;;3.20;;
48789;SDS011;41718;51.980;5.734;2024-01-30T15:38:02;2.20;;;1.88;;
48789;SDS011;41718;51.980;5.734;2024-01-30T15:43:04;4.38;;;2.63;;
48789;SDS011;41718;51.980;5.734;2024-01-30T15:48:06;5.70;;;2.85;;
48789;SDS011;41718;51.980;5.734;2024-01-30T15:53:08;5.65;;;3.45;;
48789;SDS011;41718;51.980;5.734;2024-01-30T15:58:10;7.38;;;3.90;;
48789;SDS011;41718;51.980;5.734;2024-01-30T16:03:15;4.63;;;3.05;;
48789;SDS011;41718;51.980;5.734;2024-01-30T16:08:18;7.80;;;3.88;;
48789;SDS011;41718;51.980;5.734;2024-01-30T16:13:20;6.30;;;4.00;;
48789;SDS011;41718;51.980;5.734;2024-01-30T16:18:22;7.32;;;4.68;;
48789;SDS011;41718;51.980;5.734;2024-01-30T16:23:27;4.63;;;3.22;;
48789;SDS011;41718;51.980;5.734;2024-01-30T16:28:31;4.70;;;3.28;;
48789;SDS011;41718;51.980;5.734;2024-01-30T16:33:36;7.18;;;3.72;;
48789;SDS011;41718;51.980;5.734;2024-01-30T16:38:50;6.35;;;4.05;;
48789;SDS011;41718;51.980;5.734;2024-01-30T16:43:52;5.70;;;4.47;;
48789;SDS011;41718;51.980;5.734;2024-01-30T16:48:54;3.97;;;3.45;;
48789;SDS011;41718;51.980;5.734;2024-01-30T16:53:56;5.30;;;4.20;;
48789;SDS011;41718;51.980;5.734;2024-01-30T16:58:58;5.47;;;3.38;;
48789;SDS011;41718;51.980;5.734;2024-01-30T17:04:00;4.53;;;3.08;;
48789;SDS011;41718;51.980;5.734;2024-01-30T17:09:03;6.65;;;3.95;;
48789;SDS011;41718;51.980;5.734;2024-01-30T17:14:08;4.55;;;3.53;;
48789;SDS011;41718;51.980;5.734;2024-01-30T17:19:15;7.10;;;3.80;;
48789;SDS011;41718;51.980;5.734;2024-01-30T17:24:19;4.85;;;3.67;;
48789;SDS011;41718;51.980;5.734;2024-01-30T17:29:38;5.47;;;3.47;;
48789;SDS011;41718;51.980;5.734;2024-01-30T17:34:40;5.97;;;3.92;;
48789;SDS011;41718;51.980;5.734;2024-01-30T17:39:43;6.82;;;4.50;;
48789;SDS011;41718;51.980;5.734;2024-01-30T17:44:47;6.53;;;4.15;;
48789;SDS011;41718;51.980;5.734;2024-01-30T17:49:49;5.65;;;3.75;;
48789;SDS011;41718;51.980;5.734;2024-01-30T17:54:53;7.22;;;4.18;;
48789;SDS011;41718;51.980;5.734;2024-01-30T17:59:57;6.50;;;4.93;;
48789;SDS011;41718;51.980;5.734;2024-01-30T18:04:59;7.15;;;4.80;;
48789;SDS011;41718;51.980;5.734;2024-01-30T18:10:01;2.10;;;1.38;;
48789;SDS011;41718;51.980;5.734;2024-01-30T18:15:03;6.45;;;3.60;;
48789;SDS011;41718;51.980;5.734;2024-01-30T18:20:07;6.22;;;4.10;;
48789;SDS011;41718;51.980;5.734;2024-01-30T18:32:05;7.53;;;4.53;;
48789;SDS011;41718;51.980;5.734;2024-01-30T18:37:07;5.28;;;3.97;;
48789;SDS011;41718;51.980;5.734;2024-01-30T18:42:10;5.53;;;4.30;;
48789;SDS011;41718;51.980;5.734;2024-01-30T18:47:13;8.20;;;4.70;;
48789;SDS011;41718;51.980;5.734;2024-01-30T18:52:15;2.70;;;2.03;;
48789;SDS011;41718;51.980;5.734;2024-01-30T18:57:17;4.78;;;3.08;;
48789;SDS011;41718;51.980;5.734;2024-01-30T19:02:19;5.85;;;2.75;;
48789;SDS011;41718;51.980;5.734;2024-01-30T19:07:21;3.85;;;3.38;;
48789;SDS011;41718;51.980;5.734;2024-01-30T19:12:23;4.68;;;2.92;;
48789;SDS011;41718;51.980;5.734;2024-01-30T19:17:25;5.63;;;2.47;;
48789;SDS011;41718;51.980;5.734;2024-01-30T19:22:28;6.40;;;2.53;;
48789;SDS011;41718;51.980;5.734;2024-01-30T19:27:31;6.80;;;3.00;;
48789;SDS011;41718;51.980;5.734;2024-01-30T19:32:34;5.43;;;2.70;;
48789;SDS011;41718;51.980;5.734;2024-01-30T19:37:37;3.08;;;2.03;;
48789;SDS011;41718;51.980;5.734;2024-01-30T19:42:39;7.65;;;2.42;;
48789;SDS011;41718;51.980;5.734;2024-01-30T19:47:41;3.20;;;2.30;;
48789;SDS011;41718;51.980;5.734;2024-01-30T19:52:43;3.80;;;2.03;;
48789;SDS011;41718;51.980;5.734;2024-01-30T19:57:46;4.80;;;2.15;;
48789;SDS011;41718;51.980;5.734;2024-01-30T20:02:48;6.05;;;2.20;;
48789;SDS011;41718;51.980;5.734;2024-01-30T20:07:55;7.43;;;2.22;;
48789;SDS011;41718;51.980;5.734;2024-01-30T20:13:06;7.05;;;2.25;;
48789;SDS011;41718;51.980;5.734;2024-01-30T20:18:20;10.18;;;1.92;;
48789;SDS011;41718;51.980;5.734;2024-01-30T20:23:24;8.02;;;2.20;;
48789;SDS011;41718;51.980;5.734;2024-01-30T20:28:40;3.70;;;1.70;;
48789;SDS011;41718;51.980;5.734;2024-01-30T20:33:43;5.40;;;2.78;;
48789;SDS011;41718;51.980;5.734;2024-01-30T20:39:01;6.32;;;3.03;;
48789;SDS011;41718;51.980;5.734;2024-01-30T20:44:08;7.90;;;2.15;;
48789;SDS011;41718;51.980;5.734;2024-01-30T20:49:25;9.18;;;2.65;;
48789;SDS011;41718;51.980;5.734;2024-01-30T20:54:45;5.45;;;2.53;;
48789;SDS011;41718;51.980;5.734;2024-01-30T20:59:54;7.00;;;2.50;;
48789;SDS011;41718;51.980;5.734;2024-01-30T21:05:26;5.20;;;1.98;;
48789;SDS011;41718;51.980;5.734;2024-01-30T21:10:48;5.72;;;2.25;;
48789;SDS011;41718;51.980;5.734;2024-01-30T21:16:10;13.18;;;2.67;;
48789;SDS011;41718;51.980;5.734;2024-01-30T21:21:31;14.98;;;2.20;;
48789;SDS011;41718;51.980;5.734;2024-01-30T21:27:14;8.48;;;1.92;;
48789;SDS011;41718;51.980;5.734;2024-01-30T21:32:48;8.68;;;2.60;;
48789;SDS011;41718;51.980;5.734;2024-01-30T21:37:55;5.63;;;1.70;;
48789;SDS011;41718;51.980;5.734;2024-01-30T21:43:09;17.98;;;4.65;;
48789;SDS011;41718;51.980;5.734;2024-01-30T21:48:28;12.65;;;2.28;;
48789;SDS011;41718;51.980;5.734;2024-01-30T21:53:40;8.20;;;2.08;;
48789;SDS011;41718;51.980;5.734;2024-01-30T21:58:56;6.30;;;1.90;;
48789;SDS011;41718;51.980;5.734;2024-01-30T22:04:21;10.05;;;2.47;;
48789;SDS011;41718;51.980;5.734;2024-01-30T22:09:27;6.78;;;2.60;;
48789;SDS011;41718;51.980;5.734;2024-01-30T22:14:34;8.98;;;2.42;;
48789;SDS011;41718;51.980;5.734;2024-01-30T22:19:58;6.47;;;2.63;;
48789;SDS011;41718;51.980;5.734;2024-01-30T22:25:10;2.20;;;1.63;;
48789;SDS011;41718;51.980;5.734;2024-01-30T22:30:30;4.20;;;1.25;;
48789;SDS011;41718;51.980;5.734;2024-01-30T22:35:59;8.18;;;2.38;;
48789;SDS011;41718;51.980;5.734;2024-01-30T22:41:21;3.20;;;1.40;;
48789;SDS011;41718;51.980;5.734;2024-01-30T22:46:27;4.18;;;1.23;;
48789;SDS011;41718;51.980;5.734;2024-01-30T22:51:37;5.15;;;1.58;;
48789;SDS011;41718;51.980;5.734;2024-01-30T22:57:18;4.80;;;1.20;;
48789;SDS011;41718;51.980;5.734;2024-01-30T23:02:29;4.60;;;1.25;;
48789;SDS011;41718;51.980;5.734;2024-01-30T23:07:54;3.60;;;1.33;;
48789;SDS011;41718;51.980;5.734;2024-01-30T23:13:03;4.78;;;1.27;;
48789;SDS011;41718;51.980;5.734;2024-01-30T23:18:13;4.38;;;1.58;;
48789;SDS011;41718;51.980;5.734;2024-01-30T23:23:25;3.33;;;1.00;;
48789;SDS011;41718;51.980;5.734;2024-01-30T23:28:36;3.13;;;1.25;;
48789;SDS011;41718;51.980;5.734;2024-01-30T23:33:41;3.90;;;1.85;;
48789;SDS011;41718;51.980;5.734;2024-01-30T23:38:46;5.25;;;1.17;;
48789;SDS011;41718;51.980;5.734;2024-01-30T23:43:54;6.88;;;1.55;;
48789;SDS011;41718;51.980;5.734;2024-01-30T23:49:17;1.15;;;1.02;;
48789;SDS011;41718;51.980;5.734;2024-01-30T23:54:24;2.17;;;0.70;;
48789;SDS011;41718;51.980;5.734;2024-01-30T23:59:26;2.20;;;1.20;;
